Veidnes — LLSD — position and weather

sailwx.info

Track history (hours):
 
Tides and Currents Weather Stations Pressure Air Temp Water Temp Dewpoint Dewpoint Depression Visibility Wind Speed Wind Dir Waves Ship Positions

Veidnes

Last reported at 2015-Mar-25 12:33 UTC. Time now 2015-Mar-31 03:17 UTC.
Position N 68°01' E 015°20'.

Length 50 m; draft 5 m.

Type: Cargo ship. MMSI: 259237000.

Date/timePositionNaut miles runAvg speedWind from/ knotsBaromVisibWave heightAir tempDewpointWater temp
2015-Mar-25 12:33N 68°01' E 015°20'0 0.0
2015-Mar-25 11:33N 68°01' E 015°20'0 0.0
2015-Mar-25 10:33N 68°01' E 015°20'0 0.0
2015-Mar-25 09:33N 68°01' E 015°20'0 0.0
2015-Mar-25 08:33N 68°01' E 015°20'0 0.0
2015-Mar-24 20:26N 68°01' E 015°20'0 0.0
2015-Mar-24 19:33N 68°01' E 015°20'0 0.0
2015-Mar-24 18:33N 68°01' E 015°20'5 4.9
2015-Mar-24 17:33N 67°58' E 015°10'0 0.1
2015-Mar-24 16:33N 67°58' E 015°10'0 0.2
2015-Mar-24 15:33N 67°58' E 015°10'5 5.0
2015-Mar-24 14:33N 68°01' E 015°20'0 0.0
2015-Mar-24 13:27N 68°01' E 015°20'0 0.0
2015-Mar-24 12:33N 68°01' E 015°20'0 0.0
2015-Mar-24 11:33N 68°01' E 015°20'0 0.0
2015-Mar-24 10:29N 68°01' E 015°20'0 0.0
2015-Mar-24 09:33N 68°01' E 015°20'0 0.0
2015-Mar-24 08:30N 68°01' E 015°20'0 0.0
2015-Mar-24 07:32N 68°01' E 015°20'0 0.0
2015-Mar-23 20:33N 68°01' E 015°20'0 0.0
2015-Mar-23 19:33N 68°01' E 015°20'0 0.0
2015-Mar-23 18:33N 68°01' E 015°20'2 2.5
2015-Mar-23 17:34N 67°59' E 015°19'0 0.0
2015-Mar-23 16:28N 67°59' E 015°19'2 0.1
2015-Mar-22 10:06N 68°01' E 015°20'2 0.6
2015-Mar-22 06:23N 67°59' E 015°20'7 9.0
2015-Mar-22 05:33N 67°55' E 015°04'1311.0
2015-Mar-22 04:22N 67°49' E 014°33'9 1.4
2015-Mar-21 22:05N 67°40' E 014°43'611.5
2015-Mar-21 21:31N 67°35' E 014°35'1111.6
2015-Mar-21 20:33N 67°24' E 014°26'1211.6
2015-Mar-21 19:33N 67°14' E 014°10'8 4.0
2015-Mar-21 17:31N 67°07' E 013°60'9 9.5
2015-Mar-21 16:33N 67°15' E 014°12'10 9.8
2015-Mar-21 15:33N 67°23' E 014°26'12 9.8
2015-Mar-21 14:18N 67°36' E 014°30'7 9.9
2015-Mar-21 13:33N 67°43' E 014°31'9 9.0
2015-Mar-21 12:33N 67°51' E 014°41'10 9.6
2015-Mar-21 11:33N 67°55' E 015°05'4 4.1
2015-Mar-21 10:33N 67°58' E 015°12'1 0.8
2015-Mar-21 09:33N 67°58' E 015°10'2 1.9
2015-Mar-21 08:33N 67°57' E 015°15'7 7.3
2015-Mar-21 07:32N 67°54' E 014°57'27 8.9
2015-Mar-21 04:33N 67°30' E 014°29'9 8.9
2015-Mar-21 03:33N 67°21' E 014°23'1010.1
2015-Mar-21 02:33N 67°13' E 014°08'7 3.4
2015-Mar-21 00:32N 67°07' E 013°59'9 9.2
2015-Mar-20 23:33N 67°15' E 014°11'10 9.7
2015-Mar-20 22:33N 67°23' E 014°25'10 9.7
2015-Mar-20 21:32N 67°32' E 014°30'9 9.7
2015-Mar-20 20:33N 67°42' E 014°31'9 8.9
2015-Mar-20 19:33N 67°50' E 014°39'15 6.8
2015-Mar-20 17:23N 67°57' E 015°13'1 1.4
2015-Mar-20 16:34N 67°58' E 015°10'0 0.0
2015-Mar-20 15:33N 67°58' E 015°10'5 1.6
2015-Mar-20 12:20N 68°01' E 015°20'0 0.0
2015-Mar-18 17:12N 68°01' E 015°21'0 0.1
2015-Mar-18 14:14N 68°01' E 015°20'0 0.0
2015-Mar-18 13:29N 68°01' E 015°20'0 0.0
2015-Mar-18 12:33N 68°01' E 015°20'0 0.0
2015-Mar-18 10:16N 68°01' E 015°20'  
Track history (hours):
 
Tides and Currents Weather Stations Pressure Air Temp Water Temp Dewpoint Dewpoint Depression Visibility Wind Speed Wind Dir Waves Ship Positions

Veidnes

Last reported at 2015-Mar-25 12:33 UTC. Time now 2015-Mar-31 03:17 UTC.
Position N 68°01' E 015°20'.

Length 50 m; draft 5 m.

Type: Cargo ship. MMSI: 259237000.

Date/timePositionNaut miles runAvg speedWind from/ knotsBaromVisibWave heightAir tempDewpointWater temp
2015-Mar-25 12:33N 68°01' E 015°20'0 0.0
2015-Mar-25 11:33N 68°01' E 015°20'0 0.0
2015-Mar-25 10:33N 68°01' E 015°20'0 0.0
2015-Mar-25 09:33N 68°01' E 015°20'0 0.0
2015-Mar-25 08:33N 68°01' E 015°20'0 0.0
2015-Mar-24 20:26N 68°01' E 015°20'0 0.0
2015-Mar-24 19:33N 68°01' E 015°20'0 0.0
2015-Mar-24 18:33N 68°01' E 015°20'5 4.9
2015-Mar-24 17:33N 67°58' E 015°10'0 0.1
2015-Mar-24 16:33N 67°58' E 015°10'0 0.2
2015-Mar-24 15:33N 67°58' E 015°10'5 5.0
2015-Mar-24 14:33N 68°01' E 015°20'0 0.0
2015-Mar-24 13:27N 68°01' E 015°20'0 0.0
2015-Mar-24 12:33N 68°01' E 015°20'0 0.0
2015-Mar-24 11:33N 68°01' E 015°20'0 0.0
2015-Mar-24 10:29N 68°01' E 015°20'0 0.0
2015-Mar-24 09:33N 68°01' E 015°20'0 0.0
2015-Mar-24 08:30N 68°01' E 015°20'0 0.0
2015-Mar-24 07:32N 68°01' E 015°20'0 0.0
2015-Mar-23 20:33N 68°01' E 015°20'0 0.0
2015-Mar-23 19:33N 68°01' E 015°20'0 0.0
2015-Mar-23 18:33N 68°01' E 015°20'2 2.5
2015-Mar-23 17:34N 67°59' E 015°19'0 0.0
2015-Mar-23 16:28N 67°59' E 015°19'2 0.1
2015-Mar-22 10:06N 68°01' E 015°20'2 0.6
2015-Mar-22 06:23N 67°59' E 015°20'7 9.0
2015-Mar-22 05:33N 67°55' E 015°04'1311.0
2015-Mar-22 04:22N 67°49' E 014°33'9 1.4
2015-Mar-21 22:05N 67°40' E 014°43'611.5
2015-Mar-21 21:31N 67°35' E 014°35'1111.6
2015-Mar-21 20:33N 67°24' E 014°26'1211.6
2015-Mar-21 19:33N 67°14' E 014°10'8 4.0
2015-Mar-21 17:31N 67°07' E 013°60'9 9.5
2015-Mar-21 16:33N 67°15' E 014°12'10 9.8
2015-Mar-21 15:33N 67°23' E 014°26'12 9.8
2015-Mar-21 14:18N 67°36' E 014°30'7 9.9
2015-Mar-21 13:33N 67°43' E 014°31'9 9.0
2015-Mar-21 12:33N 67°51' E 014°41'10 9.6
2015-Mar-21 11:33N 67°55' E 015°05'4 4.1
2015-Mar-21 10:33N 67°58' E 015°12'1 0.8
2015-Mar-21 09:33N 67°58' E 015°10'2 1.9
2015-Mar-21 08:33N 67°57' E 015°15'7 7.3
2015-Mar-21 07:32N 67°54' E 014°57'27 8.9
2015-Mar-21 04:33N 67°30' E 014°29'9 8.9
2015-Mar-21 03:33N 67°21' E 014°23'1010.1
2015-Mar-21 02:33N 67°13' E 014°08'7 3.4
2015-Mar-21 00:32N 67°07' E 013°59'9 9.2
2015-Mar-20 23:33N 67°15' E 014°11'10 9.7
2015-Mar-20 22:33N 67°23' E 014°25'10 9.7
2015-Mar-20 21:32N 67°32' E 014°30'9 9.7
2015-Mar-20 20:33N 67°42' E 014°31'9 8.9
2015-Mar-20 19:33N 67°50' E 014°39'15 6.8
2015-Mar-20 17:23N 67°57' E 015°13'1 1.4
2015-Mar-20 16:34N 67°58' E 015°10'0 0.0
2015-Mar-20 15:33N 67°58' E 015°10'5 1.6
2015-Mar-20 12:20N 68°01' E 015°20'0 0.0
2015-Mar-18 17:12N 68°01' E 015°21'0 0.1
2015-Mar-18 14:14N 68°01' E 015°20'0 0.0
2015-Mar-18 13:29N 68°01' E 015°20'0 0.0
2015-Mar-18 12:33N 68°01' E 015°20'0 0.0
2015-Mar-18 10:16N 68°01' E 015°20'  

Dump ship's entire track history